sensor_id;sensor_type;location;lat;lon;timestamp;temperature;humidity
59311;DHT22;45078;51.654;21.250;2022-09-09T00:03:54;11.60;99.90
59311;DHT22;45078;51.654;21.250;2022-09-09T00:06:31;11.70;99.90
59311;DHT22;45078;51.654;21.250;2022-09-09T00:09:16;11.70;99.90
59311;DHT22;45078;51.654;21.250;2022-09-09T00:17:12;11.50;99.90
59311;DHT22;45078;51.654;21.250;2022-09-09T00:20:04;11.50;99.90
59311;DHT22;45078;51.654;21.250;2022-09-09T00:22:31;11.50;99.90
59311;DHT22;45078;51.654;21.250;2022-09-09T00:25:19;11.50;99.90
59311;DHT22;45078;51.654;21.250;2022-09-09T00:27:49;11.40;99.90
59311;DHT22;45078;51.654;21.250;2022-09-09T00:30:23;11.40;99.90
59311;DHT22;45078;51.654;21.250;2022-09-09T00:32:58;11.40;99.90
59311;DHT22;45078;51.654;21.250;2022-09-09T00:35:34;11.40;99.90
59311;DHT22;45078;51.654;21.250;2022-09-09T00:38:14;11.40;99.90
59311;DHT22;45078;51.654;21.250;2022-09-09T00:43:31;11.50;99.90
59311;DHT22;45078;51.654;21.250;2022-09-09T00:54:38;11.70;99.90
59311;DHT22;45078;51.654;21.250;2022-09-09T01:02:39;11.80;99.90
59311;DHT22;45078;51.654;21.250;2022-09-09T01:05:13;11.70;99.90
59311;DHT22;45078;51.654;21.250;2022-09-09T01:07:48;11.70;99.90
59311;DHT22;45078;51.654;21.250;2022-09-09T01:13:30;11.70;99.90
59311;DHT22;45078;51.654;21.250;2022-09-09T01:16:01;11.70;99.90
59311;DHT22;45078;51.654;21.250;2022-09-09T01:18:35;11.60;99.90
59311;DHT22;45078;51.654;21.250;2022-09-09T01:24:30;11.60;99.90
59311;DHT22;45078;51.654;21.250;2022-09-09T01:26:41;11.70;99.90
59311;DHT22;45078;51.654;21.250;2022-09-09T01:29:10;11.70;99.90
59311;DHT22;45078;51.654;21.250;2022-09-09T01:32:00;11.70;99.90
59311;DHT22;45078;51.654;21.250;2022-09-09T01:34:28;11.60;99.90
59311;DHT22;45078;51.654;21.250;2022-09-09T01:37:06;11.60;99.90
59311;DHT22;45078;51.654;21.250;2022-09-09T01:39:34;11.60;99.90
59311;DHT22;45078;51.654;21.250;2022-09-09T01:42:01;11.60;99.90
59311;DHT22;45078;51.654;21.250;2022-09-09T01:44:28;11.60;99.90
59311;DHT22;45078;51.654;21.250;2022-09-09T01:46:55;11.60;99.90
59311;DHT22;45078;51.654;21.250;2022-09-09T01:49:21;11.60;99.90
59311;DHT22;45078;51.654;21.250;2022-09-09T01:51:51;11.60;99.90
59311;DHT22;45078;51.654;21.250;2022-09-09T01:54:18;11.60;99.90
59311;DHT22;45078;51.654;21.250;2022-09-09T02:02:19;11.60;99.90
59311;DHT22;45078;51.654;21.250;2022-09-09T02:07:44;11.60;99.90
59311;DHT22;45078;51.654;21.250;2022-09-09T02:13:14;11.60;99.90
59311;DHT22;45078;51.654;21.250;2022-09-09T02:18:38;11.60;99.90
59311;DHT22;45078;51.654;21.250;2022-09-09T02:21:05;11.60;99.90
59311;DHT22;45078;51.654;21.250;2022-09-09T02:23:33;11.60;99.90
59311;DHT22;45078;51.654;21.250;2022-09-09T02:26:00;11.60;99.90
59311;DHT22;45078;51.654;21.250;2022-09-09T02:28:29;11.60;99.90
59311;DHT22;45078;51.654;21.250;2022-09-09T02:30:56;11.60;99.90
59311;DHT22;45078;51.654;21.250;2022-09-09T02:33:28;11.60;99.90
59311;DHT22;45078;51.654;21.250;2022-09-09T02:35:56;11.60;99.90
59311;DHT22;45078;51.654;21.250;2022-09-09T02:38:29;11.60;99.90
59311;DHT22;45078;51.654;21.250;2022-09-09T02:40:57;11.60;99.90
59311;DHT22;45078;51.654;21.250;2022-09-09T02:43:24;11.60;99.90
59311;DHT22;45078;51.654;21.250;2022-09-09T02:46:03;11.60;99.90
59311;DHT22;45078;51.654;21.250;2022-09-09T02:48:50;11.60;99.90
59311;DHT22;45078;51.654;21.250;2022-09-09T02:51:35;11.70;99.90
59311;DHT22;45078;51.654;21.250;2022-09-09T02:54:34;11.70;99.90
59311;DHT22;45078;51.654;21.250;2022-09-09T02:57:15;11.70;99.90
59311;DHT22;45078;51.654;21.250;2022-09-09T02:59:43;11.80;99.90
59311;DHT22;45078;51.654;21.250;2022-09-09T03:02:10;11.80;99.90
59311;DHT22;45078;51.654;21.250;2022-09-09T03:04:37;11.80;99.90
59311;DHT22;45078;51.654;21.250;2022-09-09T03:07:04;11.80;99.90
59311;DHT22;45078;51.654;21.250;2022-09-09T03:09:30;11.80;99.90
59311;DHT22;45078;51.654;21.250;2022-09-09T03:11:56;11.80;99.90
59311;DHT22;45078;51.654;21.250;2022-09-09T03:14:23;11.80;99.90
59311;DHT22;45078;51.654;21.250;2022-09-09T03:16:54;11.80;99.90
59311;DHT22;45078;51.654;21.250;2022-09-09T03:19:21;11.80;99.90
59311;DHT22;45078;51.654;21.250;2022-09-09T03:21:48;11.80;99.90
59311;DHT22;45078;51.654;21.250;2022-09-09T03:24:15;11.80;99.90
59311;DHT22;45078;51.654;21.250;2022-09-09T03:26:42;11.90;99.90
59311;DHT22;45078;51.654;21.250;2022-09-09T03:29:10;11.90;99.90
59311;DHT22;45078;51.654;21.250;2022-09-09T03:31:38;12.00;99.90
59311;DHT22;45078;51.654;21.250;2022-09-09T03:34:04;12.00;99.90
59311;DHT22;45078;51.654;21.250;2022-09-09T03:36:30;12.00;99.90
59311;DHT22;45078;51.654;21.250;2022-09-09T03:38:56;12.00;99.90
59311;DHT22;45078;51.654;21.250;2022-09-09T03:41:23;12.00;99.90
59311;DHT22;45078;51.654;21.250;2022-09-09T03:43:50;12.00;99.90
59311;DHT22;45078;51.654;21.250;2022-09-09T03:46:17;12.00;99.90
59311;DHT22;45078;51.654;21.250;2022-09-09T03:48:43;12.00;99.90
59311;DHT22;45078;51.654;21.250;2022-09-09T03:51:10;12.00;99.90
59311;DHT22;45078;51.654;21.250;2022-09-09T03:53:36;12.00;99.90
59311;DHT22;45078;51.654;21.250;2022-09-09T03:56:04;12.00;99.90
59311;DHT22;45078;51.654;21.250;2022-09-09T03:58:33;12.00;99.90
59311;DHT22;45078;51.654;21.250;2022-09-09T04:01:00;12.00;99.90
59311;DHT22;45078;51.654;21.250;2022-09-09T04:03:26;12.10;99.90
59311;DHT22;45078;51.654;21.250;2022-09-09T04:05:53;12.00;99.90
59311;DHT22;45078;51.654;21.250;2022-09-09T04:08:20;12.00;99.90
59311;DHT22;45078;51.654;21.250;2022-09-09T04:10:49;12.00;99.90
59311;DHT22;45078;51.654;21.250;2022-09-09T04:13:16;12.10;99.90
59311;DHT22;45078;51.654;21.250;2022-09-09T04:15:44;12.10;99.90
59311;DHT22;45078;51.654;21.250;2022-09-09T04:18:11;12.10;99.90
59311;DHT22;45078;51.654;21.250;2022-09-09T04:20:37;12.10;99.90
59311;DHT22;45078;51.654;21.250;2022-09-09T04:23:03;12.10;99.90
59311;DHT22;45078;51.654;21.250;2022-09-09T04:25:29;12.20;99.90
59311;DHT22;45078;51.654;21.250;2022-09-09T04:27:56;12.10;99.90
59311;DHT22;45078;51.654;21.250;2022-09-09T04:30:23;12.10;99.90
59311;DHT22;45078;51.654;21.250;2022-09-09T04:32:50;12.10;99.90
59311;DHT22;45078;51.654;21.250;2022-09-09T04:35:15;12.10;99.90
59311;DHT22;45078;51.654;21.250;2022-09-09T04:37:41;12.10;99.90
59311;DHT22;45078;51.654;21.250;2022-09-09T04:40:09;12.20;99.90
59311;DHT22;45078;51.654;21.250;2022-09-09T04:42:39;12.20;99.90
59311;DHT22;45078;51.654;21.250;2022-09-09T04:45:05;12.20;99.90
59311;DHT22;45078;51.654;21.250;2022-09-09T04:47:33;12.10;99.90
59311;DHT22;45078;51.654;21.250;2022-09-09T04:50:00;12.20;99.90
59311;DHT22;45078;51.654;21.250;2022-09-09T04:52:26;12.20;99.90
59311;DHT22;45078;51.654;21.250;2022-09-09T04:54:52;12.20;99.90
59311;DHT22;45078;51.654;21.250;2022-09-09T04:57:19;12.20;99.90
59311;DHT22;45078;51.654;21.250;2022-09-09T04:59:45;12.20;99.90
59311;DHT22;45078;51.654;21.250;2022-09-09T05:02:11;12.20;99.90
59311;DHT22;45078;51.654;21.250;2022-09-09T05:04:37;12.20;99.90
59311;DHT22;45078;51.654;21.250;2022-09-09T05:07:03;12.30;99.90
59311;DHT22;45078;51.654;21.250;2022-09-09T05:09:29;12.30;99.90
59311;DHT22;45078;51.654;21.250;2022-09-09T05:11:55;12.30;99.90
59311;DHT22;45078;51.654;21.250;2022-09-09T05:14:21;12.30;99.90
59311;DHT22;45078;51.654;21.250;2022-09-09T05:16:48;12.40;99.90
59311;DHT22;45078;51.654;21.250;2022-09-09T05:19:15;12.40;99.90
59311;DHT22;45078;51.654;21.250;2022-09-09T05:21:44;12.40;99.90
59311;DHT22;45078;51.654;21.250;2022-09-09T05:24:10;12.40;99.90
59311;DHT22;45078;51.654;21.250;2022-09-09T05:26:36;12.40;99.90
59311;DHT22;45078;51.654;21.250;2022-09-09T05:29:02;12.50;99.90
59311;DHT22;45078;51.654;21.250;2022-09-09T05:31:30;12.40;99.90
59311;DHT22;45078;51.654;21.250;2022-09-09T05:33:56;12.40;99.90
59311;DHT22;45078;51.654;21.250;2022-09-09T05:36:22;12.50;99.90
59311;DHT22;45078;51.654;21.250;2022-09-09T05:38:49;12.50;99.90
59311;DHT22;45078;51.654;21.250;2022-09-09T05:41:15;12.50;99.90
59311;DHT22;45078;51.654;21.250;2022-09-09T05:43:43;12.50;99.90
59311;DHT22;45078;51.654;21.250;2022-09-09T05:46:17;12.60;99.90
59311;DHT22;45078;51.654;21.250;2022-09-09T05:48:43;12.50;99.90
59311;DHT22;45078;51.654;21.250;2022-09-09T05:51:14;12.60;99.90
59311;DHT22;45078;51.654;21.250;2022-09-09T05:53:44;12.60;99.90
59311;DHT22;45078;51.654;21.250;2022-09-09T05:56:36;12.60;99.90
59311;DHT22;45078;51.654;21.250;2022-09-09T05:59:02;12.70;99.90
59311;DHT22;45078;51.654;21.250;2022-09-09T06:01:34;12.70;99.90
59311;DHT22;45078;51.654;21.250;2022-09-09T06:04:00;12.60;99.90
59311;DHT22;45078;51.654;21.250;2022-09-09T06:06:30;12.60;99.90
59311;DHT22;45078;51.654;21.250;2022-09-09T06:08:57;12.70;99.90
59311;DHT22;45078;51.654;21.250;2022-09-09T06:11:26;12.70;99.90
59311;DHT22;45078;51.654;21.250;2022-09-09T06:13:52;12.80;99.90
59311;DHT22;45078;51.654;21.250;2022-09-09T06:16:22;12.90;99.90
59311;DHT22;45078;51.654;21.250;2022-09-09T06:18:55;12.90;99.90
59311;DHT22;45078;51.654;21.250;2022-09-09T06:21:24;13.00;99.90
59311;DHT22;45078;51.654;21.250;2022-09-09T06:23:50;12.90;99.90
59311;DHT22;45078;51.654;21.250;2022-09-09T06:26:24;13.00;99.90
59311;DHT22;45078;51.654;21.250;2022-09-09T06:28:52;13.00;99.90
59311;DHT22;45078;51.654;21.250;2022-09-09T06:31:20;13.00;99.90
59311;DHT22;45078;51.654;21.250;2022-09-09T06:33:53;13.10;99.90
59311;DHT22;45078;51.654;21.250;2022-09-09T06:36:32;13.10;99.90
59311;DHT22;45078;51.654;21.250;2022-09-09T06:38:58;13.10;99.90
59311;DHT22;45078;51.654;21.250;2022-09-09T06:41:26;13.10;99.90
59311;DHT22;45078;51.654;21.250;2022-09-09T06:43:53;13.10;99.90
59311;DHT22;45078;51.654;21.250;2022-09-09T06:46:21;13.20;99.90
59311;DHT22;45078;51.654;21.250;2022-09-09T06:48:54;13.20;99.90
59311;DHT22;45078;51.654;21.250;2022-09-09T06:51:26;13.20;99.90
59311;DHT22;45078;51.654;21.250;2022-09-09T06:53:54;13.20;99.90
59311;DHT22;45078;51.654;21.250;2022-09-09T06:58:51;13.30;99.90
59311;DHT22;45078;51.654;21.250;2022-09-09T07:01:19;13.30;99.90
59311;DHT22;45078;51.654;21.250;2022-09-09T07:03:47;13.20;99.90
59311;DHT22;45078;51.654;21.250;2022-09-09T07:06:20;13.30;99.90
59311;DHT22;45078;51.654;21.250;2022-09-09T07:08:50;13.30;99.90
59311;DHT22;45078;51.654;21.250;2022-09-09T07:11:17;13.30;99.90
59311;DHT22;45078;51.654;21.250;2022-09-09T07:13:43;13.40;99.90
59311;DHT22;45078;51.654;21.250;2022-09-09T07:16:11;13.40;99.90
59311;DHT22;45078;51.654;21.250;2022-09-09T07:18:39;13.30;99.90
59311;DHT22;45078;51.654;21.250;2022-09-09T07:21:05;13.30;99.90
59311;DHT22;45078;51.654;21.250;2022-09-09T07:23:32;13.40;99.90
59311;DHT22;45078;51.654;21.250;2022-09-09T07:25:58;13.40;99.90
59311;DHT22;45078;51.654;21.250;2022-09-09T07:28:25;13.50;99.90
59311;DHT22;45078;51.654;21.250;2022-09-09T07:30:59;13.50;99.90
59311;DHT22;45078;51.654;21.250;2022-09-09T07:33:31;13.60;99.90
59311;DHT22;45078;51.654;21.250;2022-09-09T07:36:17;13.60;99.90
59311;DHT22;45078;51.654;21.250;2022-09-09T07:38:44;13.70;99.90
59311;DHT22;45078;51.654;21.250;2022-09-09T07:41:16;13.70;99.90
59311;DHT22;45078;51.654;21.250;2022-09-09T07:43:45;13.80;99.90
59311;DHT22;45078;51.654;21.250;2022-09-09T07:46:12;13.90;99.90
59311;DHT22;45078;51.654;21.250;2022-09-09T07:48:43;14.00;99.90
59311;DHT22;45078;51.654;21.250;2022-09-09T07:51:14;14.00;99.90
59311;DHT22;45078;51.654;21.250;2022-09-09T07:53:44;14.00;99.90
59311;DHT22;45078;51.654;21.250;2022-09-09T07:56:13;14.00;99.90
59311;DHT22;45078;51.654;21.250;2022-09-09T07:58:40;14.10;99.90
59311;DHT22;45078;51.654;21.250;2022-09-09T08:01:21;14.20;99.90
59311;DHT22;45078;51.654;21.250;2022-09-09T08:03:54;14.30;99.90
59311;DHT22;45078;51.654;21.250;2022-09-09T08:06:21;14.30;99.90
59311;DHT22;45078;51.654;21.250;2022-09-09T08:08:50;14.40;99.90
59311;DHT22;45078;51.654;21.250;2022-09-09T08:11:21;14.50;99.90
59311;DHT22;45078;51.654;21.250;2022-09-09T08:13:50;14.50;99.90
59311;DHT22;45078;51.654;21.250;2022-09-09T08:16:25;14.50;99.90
59311;DHT22;45078;51.654;21.250;2022-09-09T08:18:52;14.60;99.90
59311;DHT22;45078;51.654;21.250;2022-09-09T08:21:22;14.60;99.90
59311;DHT22;45078;51.654;21.250;2022-09-09T08:23:51;14.60;99.90
59311;DHT22;45078;51.654;21.250;2022-09-09T08:26:19;14.60;99.90
59311;DHT22;45078;51.654;21.250;2022-09-09T08:28:53;14.60;99.90
59311;DHT22;45078;51.654;21.250;2022-09-09T08:31:24;14.60;99.90
59311;DHT22;45078;51.654;21.250;2022-09-09T08:33:51;14.70;99.90
59311;DHT22;45078;51.654;21.250;2022-09-09T08:36:19;14.90;99.90
59311;DHT22;45078;51.654;21.250;2022-09-09T08:38:53;15.00;99.90
59311;DHT22;45078;51.654;21.250;2022-09-09T08:50:26;15.40;99.90
59311;DHT22;45078;51.654;21.250;2022-09-09T08:53:16;15.50;99.90
59311;DHT22;45078;51.654;21.250;2022-09-09T08:55:51;15.60;99.90
59311;DHT22;45078;51.654;21.250;2022-09-09T08:58:21;15.60;99.90
59311;DHT22;45078;51.654;21.250;2022-09-09T09:12:00;15.60;99.90
59311;DHT22;45078;51.654;21.250;2022-09-09T09:14:31;15.50;99.90
59311;DHT22;45078;51.654;21.250;2022-09-09T09:17:18;15.50;99.90
59311;DHT22;45078;51.654;21.250;2022-09-09T09:19:46;15.50;99.90
59311;DHT22;45078;51.654;21.250;2022-09-09T09:22:20;15.60;99.90
59311;DHT22;45078;51.654;21.250;2022-09-09T09:25:11;15.60;99.90
59311;DHT22;45078;51.654;21.250;2022-09-09T09:27:57;15.60;99.90
59311;DHT22;45078;51.654;21.250;2022-09-09T09:30:31;15.60;99.90
59311;DHT22;45078;51.654;21.250;2022-09-09T09:33:05;15.60;99.90
59311;DHT22;45078;51.654;21.250;2022-09-09T09:35:31;15.70;99.90
59311;DHT22;45078;51.654;21.250;2022-09-09T09:37:57;15.80;99.90
59311;DHT22;45078;51.654;21.250;2022-09-09T09:40:26;15.80;99.90
59311;DHT22;45078;51.654;21.250;2022-09-09T09:43:00;15.90;99.90
59311;DHT22;45078;51.654;21.250;2022-09-09T09:45:42;15.90;99.90
59311;DHT22;45078;51.654;21.250;2022-09-09T09:48:11;16.00;99.90
59311;DHT22;45078;51.654;21.250;2022-09-09T09:50:57;16.00;99.90
59311;DHT22;45078;51.654;21.250;2022-09-09T09:53:33;15.90;99.90
59311;DHT22;45078;51.654;21.250;2022-09-09T09:56:07;16.00;99.90
59311;DHT22;45078;51.654;21.250;2022-09-09T09:59:00;16.20;99.90
59311;DHT22;45078;51.654;21.250;2022-09-09T10:01:32;16.10;99.90
59311;DHT22;45078;51.654;21.250;2022-09-09T10:06:33;16.10;99.90
59311;DHT22;45078;51.654;21.250;2022-09-09T10:09:00;16.20;99.90
59311;DHT22;45078;51.654;21.250;2022-09-09T10:23:49;16.40;99.90
59311;DHT22;45078;51.654;21.250;2022-09-09T10:35:12;16.60;99.90
59311;DHT22;45078;51.654;21.250;2022-09-09T10:57:31;16.40;99.90
59311;DHT22;45078;51.654;21.250;2022-09-09T11:00:06;16.40;99.90
59311;DHT22;45078;51.654;21.250;2022-09-09T11:02:33;16.40;99.90
59311;DHT22;45078;51.654;21.250;2022-09-09T11:05:17;16.50;99.90
59311;DHT22;45078;51.654;21.250;2022-09-09T11:07:45;16.50;99.90
59311;DHT22;45078;51.654;21.250;2022-09-09T11:13:03;16.40;99.90
59311;DHT22;45078;51.654;21.250;2022-09-09T11:15:46;16.40;99.90
59311;DHT22;45078;51.654;21.250;2022-09-09T11:18:21;16.50;99.90
59311;DHT22;45078;51.654;21.250;2022-09-09T11:20:53;16.60;99.90
59311;DHT22;45078;51.654;21.250;2022-09-09T11:23:45;16.60;99.90
59311;DHT22;45078;51.654;21.250;2022-09-09T11:26:19;16.60;99.90
59311;DHT22;45078;51.654;21.250;2022-09-09T11:36:56;16.70;99.90
59311;DHT22;45078;51.654;21.250;2022-09-09T11:42:29;16.70;99.90
59311;DHT22;45078;51.654;21.250;2022-09-09T11:44:55;16.70;99.90
59311;DHT22;45078;51.654;21.250;2022-09-09T11:47:28;16.80;99.90
59311;DHT22;45078;51.654;21.250;2022-09-09T11:52:43;16.80;99.90
59311;DHT22;45078;51.654;21.250;2022-09-09T11:55:32;16.80;99.90
59311;DHT22;45078;51.654;21.250;2022-09-09T11:58:05;16.80;99.90
59311;DHT22;45078;51.654;21.250;2022-09-09T12:00:40;16.80;99.90
59311;DHT22;45078;51.654;21.250;2022-09-09T12:03:46;16.80;99.90
59311;DHT22;45078;51.654;21.250;2022-09-09T12:09:25;16.70;99.90
59311;DHT22;45078;51.654;21.250;2022-09-09T12:11:53;16.60;99.90
59311;DHT22;45078;51.654;21.250;2022-09-09T12:17:20;16.60;99.90
59311;DHT22;45078;51.654;21.250;2022-09-09T12:19:48;16.60;99.90
59311;DHT22;45078;51.654;21.250;2022-09-09T12:28:44;16.60;99.90
59311;DHT22;45078;51.654;21.250;2022-09-09T12:33:44;16.60;99.90
59311;DHT22;45078;51.654;21.250;2022-09-09T12:36:16;16.60;99.90
59311;DHT22;45078;51.654;21.250;2022-09-09T12:38:43;16.60;99.90
59311;DHT22;45078;51.654;21.250;2022-09-09T12:41:28;16.60;99.90
59311;DHT22;45078;51.654;21.250;2022-09-09T12:44:09;16.60;99.90
59311;DHT22;45078;51.654;21.250;2022-09-09T12:46:43;16.70;99.90
59311;DHT22;45078;51.654;21.250;2022-09-09T12:49:35;16.50;99.90
59311;DHT22;45078;51.654;21.250;2022-09-09T12:52:04;16.50;99.90
59311;DHT22;45078;51.654;21.250;2022-09-09T12:54:36;16.50;99.90
59311;DHT22;45078;51.654;21.250;2022-09-09T12:57:03;16.40;99.90
59311;DHT22;45078;51.654;21.250;2022-09-09T12:59:37;16.30;99.90
59311;DHT22;45078;51.654;21.250;2022-09-09T13:02:25;16.20;99.90
59311;DHT22;45078;51.654;21.250;2022-09-09T13:04:52;15.90;99.90
59311;DHT22;45078;51.654;21.250;2022-09-09T13:07:20;15.80;99.90
59311;DHT22;45078;51.654;21.250;2022-09-09T13:09:48;15.70;99.90
59311;DHT22;45078;51.654;21.250;2022-09-09T13:12:22;15.70;99.90
59311;DHT22;45078;51.654;21.250;2022-09-09T13:14:50;15.70;99.90
59311;DHT22;45078;51.654;21.250;2022-09-09T13:17:24;15.80;99.90
59311;DHT22;45078;51.654;21.250;2022-09-09T13:19:51;15.80;99.90
59311;DHT22;45078;51.654;21.250;2022-09-09T13:22:37;15.90;99.90
59311;DHT22;45078;51.654;21.250;2022-09-09T13:27:37;16.00;99.90
59311;DHT22;45078;51.654;21.250;2022-09-09T13:30:29;15.90;99.90
59311;DHT22;45078;51.654;21.250;2022-09-09T13:38:31;15.70;99.90
59311;DHT22;45078;51.654;21.250;2022-09-09T13:40:59;15.60;99.90
59311;DHT22;45078;51.654;21.250;2022-09-09T13:43:29;15.60;99.90
59311;DHT22;45078;51.654;21.250;2022-09-09T13:46:01;15.60;99.90
59311;DHT22;45078;51.654;21.250;2022-09-09T13:48:27;15.70;99.90
59311;DHT22;45078;51.654;21.250;2022-09-09T13:51:02;15.70;99.90
59311;DHT22;45078;51.654;21.250;2022-09-09T13:53:30;15.80;99.90
59311;DHT22;45078;51.654;21.250;2022-09-09T13:55:56;15.80;99.90
59311;DHT22;45078;51.654;21.250;2022-09-09T13:58:23;15.70;99.90
59311;DHT22;45078;51.654;21.250;2022-09-09T14:00:53;15.70;99.90
59311;DHT22;45078;51.654;21.250;2022-09-09T14:03:20;15.60;99.90
59311;DHT22;45078;51.654;21.250;2022-09-09T14:05:47;15.50;99.90
59311;DHT22;45078;51.654;21.250;2022-09-09T14:08:21;15.50;99.90
59311;DHT22;45078;51.654;21.250;2022-09-09T14:10:48;15.50;99.90
59311;DHT22;45078;51.654;21.250;2022-09-09T14:13:14;15.70;99.90
59311;DHT22;45078;51.654;21.250;2022-09-09T14:15:41;15.60;99.90
59311;DHT22;45078;51.654;21.250;2022-09-09T14:18:10;15.80;99.90
59311;DHT22;45078;51.654;21.250;2022-09-09T14:20:37;15.90;99.90
59311;DHT22;45078;51.654;21.250;2022-09-09T14:23:03;16.00;99.90
59311;DHT22;45078;51.654;21.250;2022-09-09T14:25:29;15.90;99.90
59311;DHT22;45078;51.654;21.250;2022-09-09T14:27:54;15.80;99.90
59311;DHT22;45078;51.654;21.250;2022-09-09T14:30:22;15.80;99.90
59311;DHT22;45078;51.654;21.250;2022-09-09T14:32:47;15.80;99.90
59311;DHT22;45078;51.654;21.250;2022-09-09T14:35:13;15.90;99.90
59311;DHT22;45078;51.654;21.250;2022-09-09T14:37:39;15.90;99.90
59311;DHT22;45078;51.654;21.250;2022-09-09T14:40:05;15.80;99.90
59311;DHT22;45078;51.654;21.250;2022-09-09T14:42:31;15.80;99.90
59311;DHT22;45078;51.654;21.250;2022-09-09T14:44:57;15.90;99.90
59311;DHT22;45078;51.654;21.250;2022-09-09T14:47:24;15.80;99.90
59311;DHT22;45078;51.654;21.250;2022-09-09T14:49:51;15.70;99.90
59311;DHT22;45078;51.654;21.250;2022-09-09T14:52:18;15.70;99.90
59311;DHT22;45078;51.654;21.250;2022-09-09T14:54:44;15.70;99.90
59311;DHT22;45078;51.654;21.250;2022-09-09T14:57:10;15.70;99.90
59311;DHT22;45078;51.654;21.250;2022-09-09T14:59:36;15.60;99.90
59311;DHT22;45078;51.654;21.250;2022-09-09T15:02:02;15.70;99.90
59311;DHT22;45078;51.654;21.250;2022-09-09T15:04:29;15.70;99.90
59311;DHT22;45078;51.654;21.250;2022-09-09T15:06:55;15.70;99.90
59311;DHT22;45078;51.654;21.250;2022-09-09T15:09:21;15.70;99.90
59311;DHT22;45078;51.654;21.250;2022-09-09T15:11:48;15.60;99.90
59311;DHT22;45078;51.654;21.250;2022-09-09T15:14:14;15.50;99.90
59311;DHT22;45078;51.654;21.250;2022-09-09T15:16:40;15.50;99.90
59311;DHT22;45078;51.654;21.250;2022-09-09T15:19:06;15.30;99.90
59311;DHT22;45078;51.654;21.250;2022-09-09T15:21:34;15.30;99.90
59311;DHT22;45078;51.654;21.250;2022-09-09T15:24:00;15.30;99.90
59311;DHT22;45078;51.654;21.250;2022-09-09T15:26:27;15.50;99.90
59311;DHT22;45078;51.654;21.250;2022-09-09T15:28:54;15.50;99.90
59311;DHT22;45078;51.654;21.250;2022-09-09T15:31:22;15.50;99.90
59311;DHT22;45078;51.654;21.250;2022-09-09T15:33:59;15.50;99.90
59311;DHT22;45078;51.654;21.250;2022-09-09T15:36:29;15.40;99.90
59311;DHT22;45078;51.654;21.250;2022-09-09T15:38:55;15.50;99.90
59311;DHT22;45078;51.654;21.250;2022-09-09T15:41:22;15.50;99.90
59311;DHT22;45078;51.654;21.250;2022-09-09T15:43:50;15.40;99.90
59311;DHT22;45078;51.654;21.250;2022-09-09T15:48:43;15.40;99.90
59311;DHT22;45078;51.654;21.250;2022-09-09T15:51:10;15.50;99.90
59311;DHT22;45078;51.654;21.250;2022-09-09T15:53:37;15.40;99.90
59311;DHT22;45078;51.654;21.250;2022-09-09T15:56:05;15.40;99.90
59311;DHT22;45078;51.654;21.250;2022-09-09T15:58:35;15.40;99.90
59311;DHT22;45078;51.654;21.250;2022-09-09T16:01:04;15.40;99.90
59311;DHT22;45078;51.654;21.250;2022-09-09T16:03:34;15.10;99.90
59311;DHT22;45078;51.654;21.250;2022-09-09T16:06:00;15.10;99.90
59311;DHT22;45078;51.654;21.250;2022-09-09T16:08:33;15.10;99.90
59311;DHT22;45078;51.654;21.250;2022-09-09T16:13:35;15.10;99.90
59311;DHT22;45078;51.654;21.250;2022-09-09T16:16:06;15.00;99.90
59311;DHT22;45078;51.654;21.250;2022-09-09T16:18:40;14.80;99.90
59311;DHT22;45078;51.654;21.250;2022-09-09T16:21:07;14.70;99.90
59311;DHT22;45078;51.654;21.250;2022-09-09T16:23:34;14.60;99.90
59311;DHT22;45078;51.654;21.250;2022-09-09T16:26:00;14.50;99.90
59311;DHT22;45078;51.654;21.250;2022-09-09T16:28:27;14.40;99.90
59311;DHT22;45078;51.654;21.250;2022-09-09T16:30:53;14.40;99.90
59311;DHT22;45078;51.654;21.250;2022-09-09T16:33:19;14.30;99.90
59311;DHT22;45078;51.654;21.250;2022-09-09T16:35:45;14.30;99.90
59311;DHT22;45078;51.654;21.250;2022-09-09T16:38:11;14.30;99.90
59311;DHT22;45078;51.654;21.250;2022-09-09T16:40:38;14.30;99.90
59311;DHT22;45078;51.654;21.250;2022-09-09T16:43:04;14.30;99.90
59311;DHT22;45078;51.654;21.250;2022-09-09T16:45:31;14.30;99.90
59311;DHT22;45078;51.654;21.250;2022-09-09T16:47:59;14.30;99.90
59311;DHT22;45078;51.654;21.250;2022-09-09T16:50:26;14.30;99.90
59311;DHT22;45078;51.654;21.250;2022-09-09T16:52:52;14.30;99.90
59311;DHT22;45078;51.654;21.250;2022-09-09T16:55:18;14.30;99.90
59311;DHT22;45078;51.654;21.250;2022-09-09T16:57:47;14.30;99.90
59311;DHT22;45078;51.654;21.250;2022-09-09T17:00:16;14.30;99.90
59311;DHT22;45078;51.654;21.250;2022-09-09T17:02:43;14.30;99.90
59311;DHT22;45078;51.654;21.250;2022-09-09T17:05:09;14.30;99.90
59311;DHT22;45078;51.654;21.250;2022-09-09T17:07:35;14.20;99.90
59311;DHT22;45078;51.654;21.250;2022-09-09T17:10:01;14.20;99.90
59311;DHT22;45078;51.654;21.250;2022-09-09T17:12:27;14.20;99.90
59311;DHT22;45078;51.654;21.250;2022-09-09T17:14:53;14.20;99.90
59311;DHT22;45078;51.654;21.250;2022-09-09T17:17:21;14.20;99.90
59311;DHT22;45078;51.654;21.250;2022-09-09T17:19:47;14.20;99.90
59311;DHT22;45078;51.654;21.250;2022-09-09T17:22:12;14.20;99.90
59311;DHT22;45078;51.654;21.250;2022-09-09T17:24:38;14.20;99.90
59311;DHT22;45078;51.654;21.250;2022-09-09T17:27:06;14.20;99.90
59311;DHT22;45078;51.654;21.250;2022-09-09T17:29:32;14.20;99.90
59311;DHT22;45078;51.654;21.250;2022-09-09T17:31:57;14.20;99.90
59311;DHT22;45078;51.654;21.250;2022-09-09T17:34:23;14.20;99.90
59311;DHT22;45078;51.654;21.250;2022-09-09T17:36:50;14.10;99.90
59311;DHT22;45078;51.654;21.250;2022-09-09T17:39:17;14.20;99.90
59311;DHT22;45078;51.654;21.250;2022-09-09T17:41:43;14.10;99.90
59311;DHT22;45078;51.654;21.250;2022-09-09T17:44:09;14.10;99.90
59311;DHT22;45078;51.654;21.250;2022-09-09T17:46:37;14.10;99.90
59311;DHT22;45078;51.654;21.250;2022-09-09T17:49:14;14.10;99.90
59311;DHT22;45078;51.654;21.250;2022-09-09T17:51:41;14.10;99.90
59311;DHT22;45078;51.654;21.250;2022-09-09T17:54:12;14.10;99.90
59311;DHT22;45078;51.654;21.250;2022-09-09T17:56:39;14.10;99.90
59311;DHT22;45078;51.654;21.250;2022-09-09T17:59:07;14.10;99.90
59311;DHT22;45078;51.654;21.250;2022-09-09T18:01:36;14.10;99.90
59311;DHT22;45078;51.654;21.250;2022-09-09T18:04:06;14.10;99.90
59311;DHT22;45078;51.654;21.250;2022-09-09T18:06:37;14.00;99.90
59311;DHT22;45078;51.654;21.250;2022-09-09T18:09:09;14.10;99.90